Time;durP1;ratioP1;P1;durP2;ratioP2;P2;SDS_P1;SDS_P2;PMS_P1;PMS_P2;Temp;Humidity;BMP_temperature;BMP_pressure;BME280_temperature;BME280_humidity;BME280_pressure;Samples;Min_cycle;Max_cycle;Signal;HPM_P1;HPM_P2
2021/12/22 00:02:01;;;;;;;34.57;15.93;;;-1.60;90.30;;;;;;5045632;28;20080;-66
2021/12/22 00:04:27;;;;;;;37.40;17.87;;;-1.60;90.30;;;;;;5047090;28;20412;-66
2021/12/22 00:06:53;;;;;;;38.33;18.73;;;-1.70;90.30;;;;;;5052596;28;20107;-66
2021/12/22 00:09:19;;;;;;;40.63;18.37;;;-1.70;90.30;;;;;;5049145;28;20081;-66
2021/12/22 00:11:45;;;;;;;45.40;18.03;;;-1.60;90.30;;;;;;5052018;28;20084;-75
2021/12/22 00:14:11;;;;;;;39.10;18.30;;;-1.70;90.30;;;;;;5052775;28;20462;-66
2021/12/22 00:16:37;;;;;;;38.90;17.80;;;-1.70;90.20;;;;;;5050586;28;20519;-75
2021/12/22 00:19:04;;;;;;;39.77;18.93;;;-1.70;90.20;;;;;;5054231;28;20069;-74
2021/12/22 00:21:30;;;;;;;44.13;18.27;;;-1.70;90.20;;;;;;5052644;28;20076;-74
2021/12/22 00:23:56;;;;;;;38.57;19.33;;;-1.70;90.20;;;;;;5054362;28;20543;-75
2021/12/22 00:26:22;;;;;;;39.73;19.33;;;-1.80;90.20;;;;;;5049854;28;20129;-67
2021/12/22 00:28:48;;;;;;;41.83;18.70;;;-1.80;90.10;;;;;;5050135;28;20505;-66
2021/12/22 00:31:15;;;;;;;50.07;20.30;;;-1.70;90.10;;;;;;5049722;28;20132;-67
2021/12/22 00:33:50;;;;;;;38.47;20.13;;;-1.80;90.10;;;;;;5053484;28;20069;-74
2021/12/22 00:36:21;;;;;;;37.10;19.53;;;-1.80;90.20;;;;;;5046170;28;20075;-66
2021/12/22 00:38:47;;;;;;;48.33;22.33;;;-1.80;90.30;;;;;;5052064;28;20605;-74
2021/12/22 00:41:14;;;;;;;38.00;19.47;;;-1.80;90.30;;;;;;5052727;28;20155;-74
2021/12/22 00:43:40;;;;;;;41.77;19.63;;;-1.80;90.30;;;;;;5046258;28;20091;-67
2021/12/22 00:46:06;;;;;;;43.97;18.80;;;-1.80;90.30;;;;;;5052288;28;20090;-66
2021/12/22 00:48:32;;;;;;;40.00;18.63;;;-1.80;90.30;;;;;;5046636;28;20081;-66
2021/12/22 00:50:58;;;;;;;36.47;17.40;;;-1.80;90.30;;;;;;5052947;28;20145;-74
2021/12/22 00:53:24;;;;;;;36.70;17.17;;;-1.80;90.30;;;;;;5051520;28;20083;-74
2021/12/22 00:55:50;;;;;;;31.80;16.50;;;-1.80;90.20;;;;;;5053994;28;20083;-74
2021/12/22 00:58:17;;;;;;;34.83;17.13;;;-1.80;90.20;;;;;;5051134;28;20079;-75
2021/12/22 01:00:46;;;;;;;39.43;17.80;;;-1.90;90.20;;;;;;5050299;28;20134;-74
2021/12/22 01:03:12;;;;;;;33.97;16.73;;;-1.90;90.20;;;;;;5048687;28;20087;-74
2021/12/22 01:05:38;;;;;;;34.77;17.50;;;-1.90;90.10;;;;;;5048997;28;20555;-74
2021/12/22 01:08:04;;;;;;;38.40;16.80;;;-1.90;90.10;;;;;;5051585;28;20103;-75
2021/12/22 01:10:31;;;;;;;39.50;17.90;;;-1.90;90.10;;;;;;5045349;28;20156;-75
2021/12/22 01:13:00;;;;;;;37.53;17.13;;;-1.90;90.10;;;;;;5044098;28;20576;-66
2021/12/22 01:15:27;;;;;;;36.47;17.60;;;-1.90;90.10;;;;;;5044578;28;20477;-66
2021/12/22 01:18:04;;;;;;;40.60;18.40;;;-1.90;90.10;;;;;;5048613;28;20183;-66
2021/12/22 01:20:36;;;;;;;43.63;19.37;;;-1.90;90.10;;;;;;5044950;28;20434;-66
2021/12/22 01:23:04;;;;;;;38.20;18.23;;;-1.90;90.10;;;;;;5044428;28;20523;-66
2021/12/22 01:25:41;;;;;;;34.67;17.40;;;-2.00;90.00;;;;;;5051201;28;20079;-66
2021/12/22 01:28:07;;;;;;;41.50;17.80;;;-2.00;90.00;;;;;;5048564;28;20075;-66
2021/12/22 01:30:35;;;;;;;42.50;16.90;;;-2.00;90.00;;;;;;5046039;28;20145;-66
2021/12/22 01:33:03;;;;;;;40.40;17.53;;;-2.00;90.00;;;;;;5045000;28;21152;-66
2021/12/22 01:35:32;;;;;;;36.03;18.17;;;-2.00;90.00;;;;;;5049663;28;20076;-66
2021/12/22 01:37:58;;;;;;;37.83;18.27;;;-2.00;90.00;;;;;;5046390;28;20097;-66
2021/12/22 01:40:24;;;;;;;38.27;16.80;;;-2.00;90.00;;;;;;5037934;28;20079;-66
2021/12/22 01:42:51;;;;;;;33.10;16.47;;;-2.10;90.00;;;;;;5049943;28;20138;-66
2021/12/22 01:51:06;;;;;;;34.13;17.23;;;-2.10;89.80;;;;;;5043210;28;20137;-66
2021/12/22 01:53:44;;;;;;;39.23;17.20;;;-2.10;89.80;;;;;;5034822;28;20083;-66
2021/12/22 01:56:22;;;;;;;33.97;16.73;;;-2.10;89.80;;;;;;5046513;28;20084;-66
2021/12/22 01:58:51;;;;;;;35.83;16.80;;;-2.20;89.80;;;;;;5036655;28;20100;-66
2021/12/22 02:01:17;;;;;;;33.77;16.37;;;-2.20;89.80;;;;;;5046168;28;20108;-66
2021/12/22 02:03:45;;;;;;;37.93;16.63;;;-2.20;90.20;;;;;;5044553;28;20081;-66
2021/12/22 02:06:11;;;;;;;39.97;18.60;;;-2.20;89.70;;;;;;5048467;28;20154;-66
2021/12/22 02:08:39;;;;;;;36.67;17.00;;;-2.20;89.70;;;;;;5044544;28;20087;-66
2021/12/22 02:11:06;;;;;;;36.20;16.87;;;-2.20;89.80;;;;;;5047985;28;20554;-66
2021/12/22 02:13:37;;;;;;;36.27;16.80;;;-2.20;89.70;;;;;;5041485;28;20091;-66
2021/12/22 02:16:09;;;;;;;42.25;18.33;;;-2.20;89.70;;;;;;5050255;28;20155;-66
2021/12/22 02:18:41;;;;;;;45.03;19.97;;;-2.20;89.60;;;;;;5047535;28;20124;-66
2021/12/22 02:21:07;;;;;;;;;;;-2.20;89.80;;;;;;5048306;28;20076;-66
2021/12/22 02:23:33;;;;;;;41.27;19.47;;;-2.20;90.00;;;;;;5046628;28;20061;-66
2021/12/22 02:26:10;;;;;;;48.80;19.47;;;-2.20;89.90;;;;;;5047048;28;20074;-66
2021/12/22 02:28:38;;;;;;;47.97;20.43;;;-2.20;90.00;;;;;;5048469;28;20426;-66
2021/12/22 02:31:12;;;;;;;45.80;19.73;;;-2.20;90.00;;;;;;5043629;28;20110;-74
2021/12/22 02:33:40;;;;;;;39.67;18.27;;;-2.20;90.10;;;;;;5047442;28;20163;-75
2021/12/22 02:36:29;;;;;;;51.80;19.83;;;-2.20;90.10;;;;;;5050064;28;20177;-74
2021/12/22 02:38:57;;;;;;;48.07;19.03;;;-2.20;90.00;;;;;;5045522;28;20440;-74
2021/12/22 02:41:27;;;;;;;47.90;19.83;;;-2.10;90.10;;;;;;5048742;28;20117;-74
2021/12/22 02:43:55;;;;;;;52.70;20.47;;;-2.20;90.10;;;;;;5046799;28;20155;-74
2021/12/22 02:46:24;;;;;;;51.70;21.03;;;-2.20;90.20;;;;;;5049576;28;20067;-74
2021/12/22 02:48:50;;;;;;;57.17;21.30;;;-2.10;90.20;;;;;;5050561;28;20076;-74
2021/12/22 02:51:17;;;;;;;51.20;20.93;;;-2.10;90.20;;;;;;5063232;28;20071;-75
2021/12/22 02:54:01;;;;;;;52.63;21.03;;;-2.10;90.30;;;;;;5052231;28;20072;-75
2021/12/22 02:56:34;;;;;;;58.00;21.67;;;-2.10;90.30;;;;;;5045803;28;20163;-67
2021/12/22 03:04:09;;;;;;;47.77;18.07;;;-2.10;90.30;;;;;;5051462;28;20091;-75
2021/12/22 03:06:39;;;;;;;40.47;17.30;;;-2.20;90.20;;;;;;5046728;28;20154;-74
2021/12/22 03:09:34;;;;;;;45.60;17.33;;;-2.20;90.50;;;;;;5052112;28;20068;-75
2021/12/22 03:12:04;;;;;;;44.77;17.43;;;-2.20;90.10;;;;;;5041978;28;20427;-66
2021/12/22 03:14:30;;;;;;;36.30;17.17;;;-2.20;90.40;;;;;;5037645;28;20093;-66
2021/12/22 03:16:57;;;;;;;40.17;17.07;;;-2.20;90.00;;;;;;5047242;28;20092;-66
2021/12/22 03:19:27;;;;;;;45.77;18.13;;;-2.20;90.00;;;;;;5042907;28;20079;-66
2021/12/22 03:21:59;;;;;;;40.77;16.63;;;-2.20;90.00;;;;;;5047450;28;20097;-66
2021/12/22 03:24:25;;;;;;;41.23;17.13;;;-2.30;90.00;;;;;;5043479;28;20466;-67
2021/12/22 03:26:51;;;;;;;36.47;16.20;;;-2.30;90.00;;;;;;5050720;28;20069;-74
2021/12/22 03:29:18;;;;;;;42.27;16.80;;;-2.30;90.00;;;;;;5054622;28;20155;-74
2021/12/22 03:31:44;;;;;;;37.10;16.90;;;-2.30;90.00;;;;;;5050966;28;20156;-66
2021/12/22 03:34:11;;;;;;;41.30;15.93;;;-2.30;90.00;;;;;;5046975;28;20079;-66
2021/12/22 03:36:37;;;;;;;45.33;18.80;;;-2.30;90.00;;;;;;5043778;28;20083;-75
2021/12/22 03:39:05;;;;;;;35.30;16.27;;;-2.40;89.90;;;;;;5054574;28;20149;-75
2021/12/22 03:41:31;;;;;;;40.83;16.50;;;-2.40;89.80;;;;;;5049849;28;20072;-74
2021/12/22 03:43:57;;;;;;;46.33;17.73;;;-2.40;89.90;;;;;;5046129;28;20622;-74
2021/12/22 03:46:22;;;;;;;34.53;15.20;;;-2.40;89.90;;;;;;5050971;28;20076;-74
2021/12/22 03:48:48;;;;;;;39.50;17.33;;;-2.40;89.90;;;;;;5055041;28;20489;-74
2021/12/22 03:51:14;;;;;;;41.97;17.97;;;-2.40;89.80;;;;;;5053942;28;20102;-74
2021/12/22 03:53:39;;;;;;;43.23;16.63;;;-2.40;89.80;;;;;;5046713;28;20136;-74
2021/12/22 03:56:05;;;;;;;41.33;18.00;;;-2.50;89.70;;;;;;5053170;28;20163;-74
2021/12/22 03:58:31;;;;;;;45.03;17.63;;;-2.50;89.70;;;;;;5046301;28;20182;-74
2021/12/22 04:00:57;;;;;;;46.03;18.27;;;-2.40;89.70;;;;;;5050903;28;20119;-74
2021/12/22 04:03:27;;;;;;;43.07;17.53;;;-2.50;89.60;;;;;;5049901;28;20085;-74
2021/12/22 04:05:53;;;;;;;39.60;16.43;;;-2.40;89.60;;;;;;5053903;28;20125;-74
2021/12/22 04:08:19;;;;;;;42.83;17.63;;;-2.50;89.60;;;;;;5051823;28;20115;-74
2021/12/22 04:10:49;;;;;;;45.13;17.60;;;-2.50;89.60;;;;;;5053009;28;20087;-74
2021/12/22 04:13:15;;;;;;;46.37;18.50;;;-2.50;89.60;;;;;;5052303;28;20524;-74
2021/12/22 04:15:42;;;;;;;40.80;16.43;;;-2.50;89.60;;;;;;5054007;28;20081;-75
2021/12/22 04:18:08;;;;;;;47.50;17.10;;;-2.50;89.60;;;;;;5047333;28;20586;-66
2021/12/22 04:20:34;;;;;;;38.17;16.40;;;-2.50;89.60;;;;;;5050152;28;20094;-66
2021/12/22 04:23:00;;;;;;;42.10;16.97;;;-2.50;89.50;;;;;;5049766;28;20076;-66
2021/12/22 04:25:27;;;;;;;49.13;16.93;;;-2.50;89.50;;;;;;5044413;28;20408;-66
2021/12/22 04:28:04;;;;;;;46.70;16.83;;;-2.50;89.50;;;;;;5051519;28;20079;-66
2021/12/22 04:30:32;;;;;;;37.13;16.67;;;-2.50;89.50;;;;;;5047854;28;20236;-66
2021/12/22 04:32:59;;;;;;;43.90;17.67;;;-2.60;89.40;;;;;;5053137;28;20080;-74
2021/12/22 04:35:25;;;;;;;42.63;16.33;;;-2.60;89.40;;;;;;5050970;28;20090;-75
2021/12/22 04:37:51;;;;;;;42.17;17.13;;;-2.60;89.40;;;;;;5051533;28;20096;-75
2021/12/22 04:40:16;;;;;;;42.60;16.43;;;-2.60;89.40;;;;;;5050075;28;20106;-74
2021/12/22 04:42:43;;;;;;;46.43;17.07;;;-2.60;89.50;;;;;;5049611;28;20082;-74
2021/12/22 04:45:09;;;;;;;41.50;16.67;;;-2.60;89.60;;;;;;5051051;28;20713;-75
2021/12/22 04:47:35;;;;;;;49.97;18.73;;;-2.60;89.60;;;;;;5035939;28;20088;-74
2021/12/22 04:50:09;;;;;;;50.80;20.87;;;-2.60;89.60;;;;;;5038405;28;20168;-74
2021/12/22 04:52:42;;;;;;;46.43;18.20;;;-2.60;89.70;;;;;;5052695;28;20083;-74
2021/12/22 04:55:08;;;;;;;48.27;20.57;;;-2.60;89.80;;;;;;5042919;28;20486;-66
2021/12/22 04:57:34;;;;;;;50.97;19.80;;;-2.60;89.80;;;;;;5032418;28;20099;-66
2021/12/22 05:00:01;;;;;;;59.10;20.50;;;-2.60;89.80;;;;;;5063173;28;20115;-66
2021/12/22 05:02:27;;;;;;;57.67;18.80;;;-2.60;89.90;;;;;;5047821;28;20076;-66
2021/12/22 05:04:53;;;;;;;47.30;18.33;;;-2.60;89.90;;;;;;5051651;28;20557;-74
2021/12/22 05:07:19;;;;;;;49.33;19.03;;;-2.60;89.80;;;;;;5052576;28;20076;-65
2021/12/22 05:09:44;;;;;;;55.17;19.33;;;-2.60;89.80;;;;;;5037754;28;20085;-66
2021/12/22 05:12:10;;;;;;;54.10;20.93;;;-2.60;89.80;;;;;;5051580;28;20458;-74
2021/12/22 05:14:36;;;;;;;54.73;19.77;;;-2.60;89.80;;;;;;5049636;28;20093;-74
2021/12/22 05:17:05;;;;;;;53.67;18.00;;;-2.60;89.80;;;;;;5053299;28;20183;-76
2021/12/22 05:19:30;;;;;;;58.67;20.47;;;-2.60;89.90;;;;;;5052370;28;20081;-76
2021/12/22 05:21:56;;;;;;;50.77;20.47;;;-2.60;89.90;;;;;;5049663;28;20163;-76
2021/12/22 05:24:22;;;;;;;63.40;21.17;;;-2.60;89.90;;;;;;5050569;28;20092;-67
2021/12/22 05:26:49;;;;;;;59.77;20.63;;;-2.60;89.90;;;;;;5048979;28;20083;-66
2021/12/22 05:29:15;;;;;;;60.03;22.20;;;-2.60;89.90;;;;;;5046441;28;20073;-66
2021/12/22 05:31:41;;;;;;;56.83;20.80;;;-2.60;90.00;;;;;;5043623;28;20144;-66
2021/12/22 05:34:06;;;;;;;56.27;19.80;;;-2.60;90.00;;;;;;5043681;28;20081;-66
2021/12/22 05:36:32;;;;;;;57.53;19.13;;;-2.50;90.00;;;;;;5036198;28;20075;-66
2021/12/22 05:38:58;;;;;;;55.17;20.70;;;-2.50;90.00;;;;;;5046480;28;20100;-66
2021/12/22 05:41:24;;;;;;;58.60;20.30;;;-2.50;90.00;;;;;;5046160;28;20125;-66
2021/12/22 05:43:50;;;;;;;56.93;20.07;;;-2.50;90.00;;;;;;5041634;28;20075;-66
2021/12/22 05:46:16;;;;;;;53.70;19.27;;;-2.50;90.00;;;;;;5043763;28;20221;-66
2021/12/22 05:48:44;;;;;;;49.33;18.77;;;-2.50;90.00;;;;;;5040591;28;20084;-66
2021/12/22 05:51:10;;;;;;;49.53;17.90;;;-2.50;90.00;;;;;;5042446;28;20091;-66
2021/12/22 05:53:36;;;;;;;52.57;21.07;;;-2.50;90.00;;;;;;5050363;28;20170;-66
2021/12/22 05:56:02;;;;;;;52.83;18.87;;;-2.50;90.00;;;;;;5044819;28;20084;-66
2021/12/22 05:58:28;;;;;;;46.47;18.47;;;-2.50;90.00;;;;;;5037131;28;20122;-66
2021/12/22 06:00:54;;;;;;;49.47;19.57;;;-2.50;89.90;;;;;;5047591;28;20576;-66
2021/12/22 06:03:20;;;;;;;48.60;17.27;;;-2.50;89.90;;;;;;5044443;28;20434;-66
2021/12/22 06:05:46;;;;;;;49.93;19.53;;;-2.50;89.90;;;;;;5036443;28;20084;-66
2021/12/22 06:08:11;;;;;;;59.20;20.37;;;-2.50;89.90;;;;;;5043890;28;20088;-66
2021/12/22 06:10:37;;;;;;;53.03;19.87;;;-2.50;90.00;;;;;;5032079;28;20590;-66
2021/12/22 06:13:08;;;;;;;49.17;20.23;;;-2.50;89.90;;;;;;5054890;28;20556;-66
2021/12/22 06:15:35;;;;;;;65.43;21.13;;;-2.50;90.00;;;;;;5049702;28;20424;-66
2021/12/22 06:18:02;;;;;;;51.33;17.97;;;-2.50;89.90;;;;;;5048107;28;20092;-66
2021/12/22 06:20:29;;;;;;;49.57;17.80;;;-2.60;89.90;;;;;;5041481;28;20100;-66
2021/12/22 06:22:55;;;;;;;42.73;17.17;;;-2.60;89.90;;;;;;5063730;28;20510;-66
2021/12/22 06:25:22;;;;;;;46.57;19.77;;;-2.60;89.90;;;;;;5039727;28;20080;-66
2021/12/22 06:27:48;;;;;;;53.90;17.90;;;-2.60;89.90;;;;;;5038364;28;20098;-66
2021/12/22 06:30:13;;;;;;;46.43;18.23;;;-2.60;89.80;;;;;;5041515;28;20061;-66
2021/12/22 06:32:39;;;;;;;52.20;18.83;;;-2.60;89.60;;;;;;5033344;28;20146;-67
2021/12/22 06:35:06;;;;;;;48.90;16.43;;;-2.60;89.60;;;;;;5038915;28;20068;-66
2021/12/22 06:37:32;;;;;;;42.57;16.87;;;-2.60;89.60;;;;;;5028393;28;20195;-66
2021/12/22 06:39:57;;;;;;;44.27;17.17;;;-2.70;89.50;;;;;;5033026;28;20091;-66
2021/12/22 06:42:23;;;;;;;51.97;19.17;;;-2.70;89.40;;;;;;5039717;28;20081;-66
2021/12/22 06:44:50;;;;;;;50.20;17.53;;;-2.70;89.30;;;;;;5037929;28;20081;-67
2021/12/22 06:47:16;;;;;;;48.27;17.53;;;-2.70;89.40;;;;;;5041272;28;20442;-67
2021/12/22 06:49:41;;;;;;;44.50;18.10;;;-2.70;89.30;;;;;;5038413;28;20080;-66
2021/12/22 06:52:08;;;;;;;51.77;18.73;;;-2.70;89.40;;;;;;5039304;28;20076;-66
2021/12/22 06:54:33;;;;;;;45.37;17.27;;;-2.70;89.40;;;;;;5039624;28;20129;-66
2021/12/22 06:56:59;;;;;;;50.30;17.50;;;-2.70;89.30;;;;;;5029258;28;20081;-67
2021/12/22 06:59:25;;;;;;;49.07;18.00;;;-2.70;89.30;;;;;;5040752;28;20076;-66
2021/12/22 07:01:51;;;;;;;40.93;17.13;;;-2.70;89.30;;;;;;5032509;28;20118;-66
2021/12/22 07:04:20;;;;;;;45.93;17.13;;;-2.80;89.30;;;;;;5036147;28;20540;-66
2021/12/22 07:06:46;;;;;;;61.97;19.37;;;-2.80;90.00;;;;;;5039845;28;20159;-67
2021/12/22 07:09:12;;;;;;;51.83;17.97;;;-2.80;89.20;;;;;;5041384;28;20077;-66
2021/12/22 07:11:38;;;;;;;43.00;17.20;;;-2.80;89.20;;;;;;5034968;28;20089;-66
2021/12/22 07:14:07;;;;;;;44.07;16.87;;;-2.80;89.30;;;;;;5032275;28;20167;-66
2021/12/22 07:16:33;;;;;;;45.87;18.43;;;-2.80;89.20;;;;;;5038839;28;20072;-66
2021/12/22 07:18:59;;;;;;;48.63;18.27;;;-2.80;89.20;;;;;;5035893;28;20095;-66
2021/12/22 07:21:25;;;;;;;47.37;18.03;;;-2.80;89.20;;;;;;5036445;28;20741;-68
2021/12/22 07:23:52;;;;;;;45.43;17.37;;;-2.80;89.20;;;;;;5031829;28;20087;-67
2021/12/22 07:26:17;;;;;;;47.13;17.57;;;-2.80;89.20;;;;;;5043367;28;20370;-66
2021/12/22 07:28:45;;;;;;;46.07;16.57;;;-2.80;89.30;;;;;;5032825;28;20091;-67
2021/12/22 07:31:12;;;;;;;55.90;19.23;;;-2.80;89.30;;;;;;5038250;28;20076;-77
2021/12/22 07:33:38;;;;;;;52.07;18.70;;;-2.80;89.40;;;;;;5054701;28;20079;-76
2021/12/22 07:36:05;;;;;;;57.33;18.13;;;-2.80;89.40;;;;;;5040547;28;20600;-72
2021/12/22 07:38:35;;;;;;;44.07;16.23;;;-2.80;89.50;;;;;;5037655;28;20175;-72
2021/12/22 07:41:03;;;;;;;48.47;16.60;;;-2.80;89.50;;;;;;5038101;28;20527;-72
2021/12/22 07:43:30;;;;;;;47.80;17.40;;;-2.80;89.50;;;;;;5041674;28;20072;-76
2021/12/22 07:45:56;;;;;;;51.00;16.40;;;-2.80;89.40;;;;;;5035159;28;20084;-80
2021/12/22 07:48:22;;;;;;;52.73;18.03;;;-2.90;89.40;;;;;;5039453;28;20076;-79
2021/12/22 07:50:47;;;;;;;50.83;18.20;;;-2.90;89.60;;;;;;5032999;28;20085;-79
2021/12/22 07:53:13;;;;;;;55.83;17.40;;;-2.80;89.80;;;;;;5042589;28;20071;-81
2021/12/22 07:55:39;;;;;;;55.63;17.70;;;-2.80;89.80;;;;;;5035706;28;20081;-80
2021/12/22 07:58:07;;;;;;;64.53;18.83;;;-2.80;89.80;;;;;;5042831;28;20133;-79
2021/12/22 08:00:34;;;;;;;52.00;18.53;;;-2.80;89.90;;;;;;5040100;28;20475;-82
2021/12/22 08:03:00;;;;;;;53.93;20.83;;;-2.70;90.00;;;;;;5038860;28;20076;-79
2021/12/22 08:05:25;;;;;;;57.70;19.30;;;-2.70;90.00;;;;;;5037396;28;20080;-80
2021/12/22 08:07:51;;;;;;;47.07;17.93;;;-2.70;90.00;;;;;;5035988;28;20084;-80
2021/12/22 08:10:17;;;;;;;54.03;17.33;;;-2.70;90.00;;;;;;5038694;28;20076;-80
2021/12/22 08:12:43;;;;;;;50.70;19.17;;;-2.70;90.00;;;;;;5046664;28;20126;-80
2021/12/22 08:15:09;;;;;;;53.43;18.57;;;-2.70;89.90;;;;;;5044042;28;20162;-80
2021/12/22 08:17:34;;;;;;;49.40;17.40;;;-2.70;90.00;;;;;;5044726;28;20112;-71
2021/12/22 08:20:02;;;;;;;58.83;19.87;;;-2.60;90.00;;;;;;5052347;28;20210;-71
2021/12/22 08:22:28;;;;;;;50.37;18.30;;;-2.60;90.40;;;;;;5048884;28;20828;-71
2021/12/22 08:24:54;;;;;;;53.97;18.93;;;-2.60;90.10;;;;;;5040377;28;20156;-71
2021/12/22 08:27:23;;;;;;;61.70;21.13;;;-2.60;90.10;;;;;;5044004;28;20077;-71
2021/12/22 08:29:50;;;;;;;49.93;17.43;;;-2.50;90.10;;;;;;5035209;28;20543;-71
2021/12/22 08:32:17;;;;;;;47.27;17.60;;;-2.50;90.10;;;;;;5041327;28;20071;-71
2021/12/22 08:34:43;;;;;;;49.70;18.80;;;-2.50;90.10;;;;;;5044672;28;20110;-66
2021/12/22 08:39:55;;;;;;;52.27;17.67;;;-2.40;90.10;;;;;;5042079;28;20202;-67
2021/12/22 08:42:21;;;;;;;53.57;19.63;;;-2.40;90.10;;;;;;5040653;28;20094;-67
2021/12/22 08:44:48;;;;;;;58.30;20.43;;;-2.30;90.20;;;;;;5045030;28;20072;-67
2021/12/22 08:47:15;;;;;;;57.00;19.47;;;-2.30;90.10;;;;;;5039740;28;20073;-67
2021/12/22 08:49:41;;;;;;;53.63;19.73;;;-2.30;90.20;;;;;;5042552;28;20157;-67
2021/12/22 08:52:07;;;;;;;57.03;18.20;;;-2.20;90.20;;;;;;5052115;28;20107;-69
2021/12/22 08:54:33;;;;;;;53.77;17.63;;;-2.20;90.20;;;;;;5043393;28;20071;-69
2021/12/22 08:56:59;;;;;;;47.97;19.07;;;-2.10;90.20;;;;;;5044765;28;20439;-68
2021/12/22 08:59:25;;;;;;;53.23;19.50;;;-2.10;90.20;;;;;;5041321;28;20076;-68
2021/12/22 09:01:52;;;;;;;50.50;18.20;;;-2.10;90.20;;;;;;5045138;28;20607;-68
2021/12/22 09:04:21;;;;;;;55.67;19.43;;;-2.00;90.20;;;;;;5028998;28;20107;-67
2021/12/22 09:06:48;;;;;;;51.00;18.33;;;-2.00;90.20;;;;;;5031232;28;20092;-68
2021/12/22 09:09:14;;;;;;;51.63;18.80;;;-2.00;90.10;;;;;;5045585;28;20095;-67
2021/12/22 09:11:41;;;;;;;53.10;19.00;;;-2.00;90.20;;;;;;5042354;28;20091;-67
2021/12/22 09:14:08;;;;;;;56.07;17.60;;;-2.00;90.20;;;;;;5040168;28;20091;-73
2021/12/22 09:16:34;;;;;;;51.60;17.07;;;-1.90;90.20;;;;;;5050213;28;20080;-74
2021/12/22 09:19:00;;;;;;;44.00;18.30;;;-1.90;90.20;;;;;;5045702;28;20529;-74
2021/12/22 09:21:26;;;;;;;52.70;19.03;;;-1.90;90.30;;;;;;5053662;28;20068;-73
2021/12/22 09:23:52;;;;;;;54.27;18.67;;;-1.90;90.20;;;;;;5048964;28;20088;-73
2021/12/22 09:26:17;;;;;;;52.53;18.23;;;-1.80;90.30;;;;;;5037350;28;20075;-72
2021/12/22 09:28:43;;;;;;;52.83;18.70;;;-1.80;90.30;;;;;;5050151;28;20087;-71
2021/12/22 09:31:09;;;;;;;44.87;16.87;;;-1.70;90.30;;;;;;5040697;28;20090;-72
2021/12/22 09:33:37;;;;;;;52.27;18.87;;;-1.70;90.30;;;;;;5059207;28;20067;-71
2021/12/22 09:36:05;;;;;;;44.97;18.00;;;-1.60;90.40;;;;;;5046663;28;20087;-71
2021/12/22 09:38:31;;;;;;;51.70;18.13;;;-1.60;90.40;;;;;;5044802;28;20095;-78
2021/12/22 09:40:58;;;;;;;50.07;19.43;;;-1.50;90.40;;;;;;5051155;28;20079;-79
2021/12/22 09:43:23;;;;;;;47.50;18.50;;;-1.40;90.50;;;;;;5044173;28;20075;-79
2021/12/22 09:45:56;;;;;;;53.87;19.43;;;-1.40;90.50;;;;;;5050056;28;20079;-78
2021/12/22 09:48:34;;;;;;;57.73;19.70;;;-1.30;90.50;;;;;;5038368;28;20098;-78
2021/12/22 09:53:28;;;;;;;49.40;17.73;;;-1.10;90.60;;;;;;5038897;28;20091;-70
2021/12/22 09:55:55;;;;;;;48.47;17.90;;;-1.10;90.60;;;;;;5045673;28;20083;-69
2021/12/22 09:58:21;;;;;;;48.00;18.80;;;-1.10;90.60;;;;;;5045181;28;20596;-69
2021/12/22 10:00:49;;;;;;;49.33;19.03;;;-1.10;90.60;;;;;;5039908;28;20135;-69
2021/12/22 10:03:15;;;;;;;52.93;18.93;;;-1.00;90.60;;;;;;5044451;28;20484;-69
2021/12/22 10:05:43;;;;;;;44.17;17.20;;;-1.00;90.60;;;;;;5047428;28;20110;-67
2021/12/22 10:08:21;;;;;;;54.07;18.30;;;-0.90;90.70;;;;;;5043084;28;20509;-67
2021/12/22 10:11:00;;;;;;;51.77;19.77;;;-0.90;90.70;;;;;;5040178;28;20583;-67
2021/12/22 10:13:28;;;;;;;48.00;18.17;;;-0.80;90.70;;;;;;5041759;28;20702;-68
2021/12/22 10:15:55;;;;;;;55.60;19.90;;;-0.70;90.70;;;;;;5034844;28;20502;-68
2021/12/22 10:18:26;;;;;;;52.53;18.73;;;-0.70;90.70;;;;;;5038887;28;20138;-68
2021/12/22 10:21:06;;;;;;;53.80;20.07;;;-0.60;90.80;;;;;;5045113;28;21106;-68
2021/12/22 10:23:33;;;;;;;55.07;20.00;;;-0.60;90.70;;;;;;5039030;28;20064;-68
2021/12/22 10:26:02;;;;;;;43.47;18.10;;;-0.50;90.70;;;;;;5046677;28;20164;-67
2021/12/22 10:28:31;;;;;;;42.80;18.70;;;-0.50;90.70;;;;;;5042952;28;20099;-76
2021/12/22 10:31:01;;;;;;;60.33;20.57;;;-0.50;90.70;;;;;;5045309;28;20071;-74
2021/12/22 10:33:29;;;;;;;50.87;19.17;;;-0.40;90.80;;;;;;5036626;28;20067;-71
2021/12/22 10:36:08;;;;;;;49.23;18.47;;;-0.30;90.80;;;;;;5042556;28;20080;-70
2021/12/22 10:38:34;;;;;;;54.80;18.97;;;-0.40;90.80;;;;;;5057576;28;20084;-77
2021/12/22 10:41:10;;;;;;;52.17;19.07;;;-0.30;90.70;;;;;;5047168;28;20102;-75
2021/12/22 10:43:41;;;;;;;49.10;17.77;;;-0.30;90.70;;;;;;5042485;28;20646;-69
2021/12/22 10:46:13;;;;;;;51.90;18.15;;;-0.30;90.70;;;;;;5051659;28;20523;-69
2021/12/22 10:51:30;;;;;;;49.90;18.50;;;-0.10;90.70;;;;;;5041764;28;20099;-69
2021/12/22 10:53:57;;;;;;;55.27;18.30;;;-0.10;90.70;;;;;;5046046;28;20604;-70
2021/12/22 10:56:34;;;;;;;47.40;19.17;;;-0.10;90.70;;;;;;5048608;28;20094;-70
2021/12/22 10:59:13;;;;;;;47.83;15.80;;;-0.10;90.70;;;;;;5045926;28;21712;-70
2021/12/22 11:02:07;;;;;;;48.37;18.57;;;0.00;90.80;;;;;;5045821;28;20119;-69
2021/12/22 11:04:34;;;;;;;54.10;18.57;;;0.00;90.70;;;;;;5043730;28;20123;-78
2021/12/22 11:07:16;;;;;;;47.90;19.20;;;0.00;90.70;;;;;;5044412;28;20096;-78
2021/12/22 11:09:42;;;;;;;48.45;17.60;;;0.00;90.70;;;;;;5046722;28;20073;-78
2021/12/22 11:12:09;;;;;;;45.73;19.23;;;0.00;90.70;;;;;;5050380;28;20077;-78
2021/12/22 11:14:39;;;;;;;48.57;18.07;;;0.10;90.70;;;;;;5049492;28;20079;-76
2021/12/22 11:17:09;;;;;;;51.53;19.80;;;0.10;90.70;;;;;;5047304;28;20141;-77
2021/12/22 11:20:02;;;;;;;49.23;18.97;;;0.10;90.70;;;;;;5048004;28;20083;-73
2021/12/22 11:25:24;;;;;;;54.40;19.47;;;0.10;90.70;;;;;;5042606;28;20549;-68
2021/12/22 11:27:51;;;;;;;48.10;19.40;;;0.10;90.70;;;;;;5042014;28;20131;-68
2021/12/22 11:30:17;;;;;;;48.73;18.83;;;0.20;90.80;;;;;;5054044;28;20080;-69
2021/12/22 11:32:43;;;;;;;47.13;17.43;;;0.20;90.80;;;;;;5039698;28;20094;-68
2021/12/22 11:35:13;;;;;;;47.80;18.60;;;0.20;90.80;;;;;;5041142;28;20088;-68
2021/12/22 11:37:39;;;;;;;48.50;19.50;;;0.20;90.80;;;;;;5042402;28;20438;-74
2021/12/22 11:40:09;;;;;;;50.80;19.53;;;0.30;90.80;;;;;;5040644;28;20079;-74
2021/12/22 11:42:38;;;;;;;46.17;18.17;;;0.30;90.80;;;;;;5043653;28;20480;-74
2021/12/22 11:45:21;;;;;;;46.57;18.30;;;0.30;90.70;;;;;;5046330;28;20090;-75
2021/12/22 11:47:51;;;;;;;64.03;19.70;;;0.30;90.80;;;;;;5046915;28;20073;-73
2021/12/22 11:50:21;;;;;;;48.87;17.77;;;0.30;90.80;;;;;;5078182;28;20082;-72
2021/12/22 11:52:59;;;;;;;58.50;20.23;;;0.30;90.80;;;;;;5050785;28;20071;-73
2021/12/22 11:55:40;;;;;;;49.23;19.10;;;0.30;90.80;;;;;;5052301;28;20162;-72
2021/12/22 11:58:23;;;;;;;50.60;17.67;;;0.30;90.80;;;;;;5049013;28;20090;-72
2021/12/22 12:00:57;;;;;;;51.60;18.30;;;0.40;90.90;;;;;;5049783;28;20115;-72
2021/12/22 12:03:30;;;;;;;53.93;17.87;;;0.40;90.80;;;;;;5052393;28;20179;-72
2021/12/22 12:06:14;;;;;;;52.80;19.47;;;0.40;90.80;;;;;;5049923;28;20068;-72
2021/12/22 12:08:46;;;;;;;44.57;17.63;;;0.50;90.90;;;;;;5047644;28;20078;-71
2021/12/22 12:11:14;;;;;;;;;;;0.50;90.90;;;;;;5033363;28;20094;-71
2021/12/22 12:22:10;;;;;;;48.10;17.97;;;0.60;90.70;;;;;;5053187;28;20078;-73
2021/12/22 12:24:47;;;;;;;48.37;19.67;;;0.60;90.80;;;;;;5048278;28;20067;-73
2021/12/22 12:27:37;;;;;;;49.80;18.27;;;0.60;90.80;;;;;;5054382;28;20158;-72
2021/12/22 12:30:09;;;;;;;51.87;19.27;;;0.60;90.80;;;;;;5048121;28;20080;-72
2021/12/22 12:32:40;;;;;;;48.30;19.65;;;0.70;90.80;;;;;;5048583;28;20083;-72
2021/12/22 12:35:26;;;;;;;45.35;17.45;;;0.70;90.90;;;;;;5066756;28;20595;-72
2021/12/22 12:38:17;;;;;;;46.90;18.57;;;0.70;90.80;;;;;;5040964;28;20126;-71
2021/12/22 12:40:59;;;;;;;53.03;18.83;;;0.70;90.80;;;;;;5051278;28;20116;-71
2021/12/22 12:43:44;;;;;;;45.57;17.57;;;0.70;90.80;;;;;;5046922;28;20072;-71
2021/12/22 12:46:24;;;;;;;51.93;18.37;;;0.70;90.80;;;;;;5041383;28;20110;-71
2021/12/22 12:49:03;;;;;;;49.97;17.83;;;0.70;90.80;;;;;;5045484;22;20139;-77
2021/12/22 12:51:33;;;;;;;47.10;19.20;;;0.70;90.70;;;;;;4993864;28;20167;-77
2021/12/22 12:54:29;;;;;;;48.97;18.07;;;0.60;90.70;;;;;;4994410;28;20077;-77
2021/12/22 12:56:59;;;;;;;51.33;18.30;;;0.60;90.80;;;;;;4984391;28;20092;-78
2021/12/22 12:59:37;;;;;;;45.20;18.43;;;0.70;90.80;;;;;;5007259;28;20549;-78
2021/12/22 13:02:18;;;;;;;42.10;17.97;;;0.60;90.80;;;;;;4995530;28;20085;-79
2021/12/22 13:04:44;;;;;;;49.60;19.20;;;0.60;90.80;;;;;;4995144;28;20782;-79
2021/12/22 13:07:20;;;;;;;50.43;19.00;;;0.60;90.80;;;;;;4977683;28;20343;-79